sensor_id;sensor_type;location;lat;lon;timestamp;P1;durP1;ratioP1;P2;durP2;ratioP2
1078;SDS011;528;47.872;11.478;2022-08-25T00:01:44;5.33;;;4.93;;
1078;SDS011;528;47.872;11.478;2022-08-25T00:04:38;4.60;;;4.30;;
1078;SDS011;528;47.872;11.478;2022-08-25T00:07:30;5.10;;;4.50;;
1078;SDS011;528;47.872;11.478;2022-08-25T00:10:03;5.20;;;4.80;;
1078;SDS011;528;47.872;11.478;2022-08-25T00:16:26;5.27;;;4.87;;
1078;SDS011;528;47.872;11.478;2022-08-25T00:22:06;5.23;;;4.83;;
1078;SDS011;528;47.872;11.478;2022-08-25T00:24:41;6.20;;;5.60;;
1078;SDS011;528;47.872;11.478;2022-08-25T00:27:24;6.20;;;5.60;;
1078;SDS011;528;47.872;11.478;2022-08-25T00:32:04;5.70;;;5.20;;
1078;SDS011;528;47.872;11.478;2022-08-25T00:33:12;5.40;;;5.00;;
1078;SDS011;528;47.872;11.478;2022-08-25T00:35:50;5.63;;;5.13;;
1078;SDS011;528;47.872;11.478;2022-08-25T00:45:56;5.60;;;5.10;;
1078;SDS011;528;47.872;11.478;2022-08-25T01:32:23;5.93;;;5.47;;
1078;SDS011;528;47.872;11.478;2022-08-25T02:30:25;7.13;;;6.53;;
1078;SDS011;528;47.872;11.478;2022-08-25T02:32:52;6.40;;;5.83;;
1078;SDS011;528;47.872;11.478;2022-08-25T02:35:20;6.90;;;6.40;;
1078;SDS011;528;47.872;11.478;2022-08-25T02:37:49;5.83;;;5.37;;
1078;SDS011;528;47.872;11.478;2022-08-25T02:40:18;6.43;;;5.87;;
1078;SDS011;528;47.872;11.478;2022-08-25T02:42:46;5.80;;;5.30;;
1078;SDS011;528;47.872;11.478;2022-08-25T02:45:13;6.10;;;5.60;;
1078;SDS011;528;47.872;11.478;2022-08-25T02:47:42;5.97;;;5.47;;
1078;SDS011;528;47.872;11.478;2022-08-25T02:50:09;6.17;;;5.57;;
1078;SDS011;528;47.872;11.478;2022-08-25T02:52:37;5.33;;;4.93;;
1078;SDS011;528;47.872;11.478;2022-08-25T02:55:06;6.27;;;5.77;;
1078;SDS011;528;47.872;11.478;2022-08-25T02:57:38;6.80;;;6.20;;
1078;SDS011;528;47.872;11.478;2022-08-25T03:00:06;6.57;;;6.00;;
1078;SDS011;528;47.872;11.478;2022-08-25T03:02:34;6.80;;;6.30;;
1078;SDS011;528;47.872;11.478;2022-08-25T03:05:03;7.13;;;6.53;;
1078;SDS011;528;47.872;11.478;2022-08-25T03:07:32;6.53;;;6.03;;
1078;SDS011;528;47.872;11.478;2022-08-25T03:10:02;6.77;;;6.23;;
1078;SDS011;528;47.872;11.478;2022-08-25T03:12:30;6.53;;;6.03;;
1078;SDS011;528;47.872;11.478;2022-08-25T03:14:58;7.00;;;6.40;;
1078;SDS011;528;47.872;11.478;2022-08-25T03:17:25;7.00;;;6.40;;
1078;SDS011;528;47.872;11.478;2022-08-25T03:19:53;7.67;;;6.97;;
1078;SDS011;528;47.872;11.478;2022-08-25T03:22:21;7.10;;;6.50;;
1078;SDS011;528;47.872;11.478;2022-08-25T03:24:49;6.53;;;6.00;;
1078;SDS011;528;47.872;11.478;2022-08-25T03:27:16;6.27;;;5.77;;
1078;SDS011;528;47.872;11.478;2022-08-25T03:29:42;6.60;;;6.00;;
1078;SDS011;528;47.872;11.478;2022-08-25T03:32:09;6.57;;;6.03;;
1078;SDS011;528;47.872;11.478;2022-08-25T03:34:36;6.57;;;6.07;;
1078;SDS011;528;47.872;11.478;2022-08-25T03:37:10;6.43;;;5.93;;
1078;SDS011;528;47.872;11.478;2022-08-25T03:39:38;6.90;;;6.30;;
1078;SDS011;528;47.872;11.478;2022-08-25T03:42:06;7.43;;;6.80;;
1078;SDS011;528;47.872;11.478;2022-08-25T03:44:33;6.77;;;6.17;;
1078;SDS011;528;47.872;11.478;2022-08-25T03:47:01;7.77;;;6.90;;
1078;SDS011;528;47.872;11.478;2022-08-25T03:49:30;6.47;;;5.87;;
1078;SDS011;528;47.872;11.478;2022-08-25T03:51:58;6.83;;;6.33;;
1078;SDS011;528;47.872;11.478;2022-08-25T03:54:26;6.90;;;6.30;;
1078;SDS011;528;47.872;11.478;2022-08-25T03:56:54;7.03;;;6.43;;
1078;SDS011;528;47.872;11.478;2022-08-25T03:59:22;6.33;;;5.83;;
1078;SDS011;528;47.872;11.478;2022-08-25T04:01:51;6.90;;;6.30;;
1078;SDS011;528;47.872;11.478;2022-08-25T04:04:18;6.77;;;6.27;;
1078;SDS011;528;47.872;11.478;2022-08-25T04:06:45;6.20;;;5.80;;
1078;SDS011;528;47.872;11.478;2022-08-25T04:09:12;7.17;;;6.57;;
1078;SDS011;528;47.872;11.478;2022-08-25T04:11:40;8.00;;;7.20;;
1078;SDS011;528;47.872;11.478;2022-08-25T04:14:09;7.60;;;6.90;;
1078;SDS011;528;47.872;11.478;2022-08-25T04:16:36;7.23;;;6.63;;
1078;SDS011;528;47.872;11.478;2022-08-25T04:19:04;7.43;;;6.73;;
1078;SDS011;528;47.872;11.478;2022-08-25T04:21:33;6.20;;;5.60;;
1078;SDS011;528;47.872;11.478;2022-08-25T04:24:01;7.20;;;6.60;;
1078;SDS011;528;47.872;11.478;2022-08-25T04:26:29;6.37;;;5.77;;
1078;SDS011;528;47.872;11.478;2022-08-25T04:29:00;6.67;;;6.10;;
1078;SDS011;528;47.872;11.478;2022-08-25T04:31:30;6.33;;;5.83;;
1078;SDS011;528;47.872;11.478;2022-08-25T04:33:59;6.20;;;5.70;;
1078;SDS011;528;47.872;11.478;2022-08-25T04:36:27;6.77;;;6.20;;
1078;SDS011;528;47.872;11.478;2022-08-25T04:38:54;7.73;;;6.83;;
1078;SDS011;528;47.872;11.478;2022-08-25T04:41:22;8.00;;;7.30;;
1078;SDS011;528;47.872;11.478;2022-08-25T04:43:50;6.23;;;5.73;;
1078;SDS011;528;47.872;11.478;2022-08-25T04:46:19;6.20;;;5.70;;
1078;SDS011;528;47.872;11.478;2022-08-25T04:48:50;6.37;;;5.87;;
1078;SDS011;528;47.872;11.478;2022-08-25T04:51:20;6.17;;;5.67;;
1078;SDS011;528;47.872;11.478;2022-08-25T04:53:49;6.73;;;6.23;;
1078;SDS011;528;47.872;11.478;2022-08-25T04:56:17;6.60;;;6.00;;
1078;SDS011;528;47.872;11.478;2022-08-25T04:58:46;6.60;;;6.00;;
1078;SDS011;528;47.872;11.478;2022-08-25T05:01:14;6.73;;;6.13;;
1078;SDS011;528;47.872;11.478;2022-08-25T05:03:51;7.43;;;6.77;;
1078;SDS011;528;47.872;11.478;2022-08-25T05:06:24;6.10;;;5.60;;
1078;SDS011;528;47.872;11.478;2022-08-25T05:08:52;7.03;;;6.43;;
1078;SDS011;528;47.872;11.478;2022-08-25T05:11:20;8.00;;;7.30;;
1078;SDS011;528;47.872;11.478;2022-08-25T05:13:50;7.53;;;6.70;;
1078;SDS011;528;47.872;11.478;2022-08-25T05:16:18;7.80;;;7.10;;
1078;SDS011;528;47.872;11.478;2022-08-25T05:18:46;6.57;;;6.03;;
1078;SDS011;528;47.872;11.478;2022-08-25T05:21:17;7.03;;;6.33;;
1078;SDS011;528;47.872;11.478;2022-08-25T05:23:46;7.33;;;6.73;;
1078;SDS011;528;47.872;11.478;2022-08-25T05:26:15;9.60;;;6.80;;
1078;SDS011;528;47.872;11.478;2022-08-25T05:28:46;6.50;;;6.10;;
1078;SDS011;528;47.872;11.478;2022-08-25T05:31:14;7.50;;;6.80;;
1078;SDS011;528;47.872;11.478;2022-08-25T05:33:42;7.10;;;6.60;;
1078;SDS011;528;47.872;11.478;2022-08-25T05:36:10;7.37;;;6.77;;
1078;SDS011;528;47.872;11.478;2022-08-25T05:38:40;7.17;;;6.60;;
1078;SDS011;528;47.872;11.478;2022-08-25T05:41:08;7.23;;;6.73;;
1078;SDS011;528;47.872;11.478;2022-08-25T05:43:51;7.77;;;7.17;;
1078;SDS011;528;47.872;11.478;2022-08-25T05:46:19;8.23;;;7.43;;
1078;SDS011;528;47.872;11.478;2022-08-25T05:48:47;8.57;;;7.70;;
1078;SDS011;528;47.872;11.478;2022-08-25T05:51:15;9.13;;;8.33;;
1078;SDS011;528;47.872;11.478;2022-08-25T05:53:48;9.20;;;8.40;;
1078;SDS011;528;47.872;11.478;2022-08-25T05:56:17;8.87;;;8.07;;
1078;SDS011;528;47.872;11.478;2022-08-25T05:58:45;7.50;;;6.90;;
1078;SDS011;528;47.872;11.478;2022-08-25T06:01:20;8.40;;;7.67;;
1078;SDS011;528;47.872;11.478;2022-08-25T06:04:06;9.30;;;8.53;;
1078;SDS011;528;47.872;11.478;2022-08-25T06:06:34;11.57;;;10.53;;
1078;SDS011;528;47.872;11.478;2022-08-25T06:09:03;10.30;;;9.40;;
1078;SDS011;528;47.872;11.478;2022-08-25T06:11:33;10.73;;;9.83;;
1078;SDS011;528;47.872;11.478;2022-08-25T06:14:01;10.90;;;10.00;;
1078;SDS011;528;47.872;11.478;2022-08-25T06:16:29;10.63;;;9.73;;
1078;SDS011;528;47.872;11.478;2022-08-25T06:18:57;11.17;;;10.17;;
1078;SDS011;528;47.872;11.478;2022-08-25T06:21:25;11.30;;;10.30;;
1078;SDS011;528;47.872;11.478;2022-08-25T06:23:53;11.40;;;10.40;;
1078;SDS011;528;47.872;11.478;2022-08-25T06:26:22;10.83;;;9.93;;
1078;SDS011;528;47.872;11.478;2022-08-25T06:28:49;10.43;;;9.53;;
1078;SDS011;528;47.872;11.478;2022-08-25T06:31:18;10.73;;;9.83;;
1078;SDS011;528;47.872;11.478;2022-08-25T06:33:46;9.87;;;9.17;;
1078;SDS011;528;47.872;11.478;2022-08-25T06:36:13;9.50;;;8.80;;
1078;SDS011;528;47.872;11.478;2022-08-25T06:38:41;10.20;;;9.27;;
1078;SDS011;528;47.872;11.478;2022-08-25T06:41:08;10.47;;;9.50;;
1078;SDS011;528;47.872;11.478;2022-08-25T06:43:39;9.53;;;8.80;;
1078;SDS011;528;47.872;11.478;2022-08-25T06:46:07;10.50;;;9.70;;
1078;SDS011;528;47.872;11.478;2022-08-25T06:48:36;9.80;;;8.93;;
1078;SDS011;528;47.872;11.478;2022-08-25T06:51:04;9.27;;;8.47;;
1078;SDS011;528;47.872;11.478;2022-08-25T06:53:32;9.57;;;8.87;;
1078;SDS011;528;47.872;11.478;2022-08-25T06:55:59;9.83;;;9.03;;
1078;SDS011;528;47.872;11.478;2022-08-25T06:58:27;9.10;;;8.40;;
1078;SDS011;528;47.872;11.478;2022-08-25T07:01:04;9.87;;;9.17;;
1078;SDS011;528;47.872;11.478;2022-08-25T07:03:32;9.30;;;8.60;;
1078;SDS011;528;47.872;11.478;2022-08-25T07:05:59;9.60;;;8.83;;
1078;SDS011;528;47.872;11.478;2022-08-25T07:08:27;9.53;;;8.93;;
1078;SDS011;528;47.872;11.478;2022-08-25T07:10:54;10.37;;;9.40;;
1078;SDS011;528;47.872;11.478;2022-08-25T07:13:21;8.90;;;8.20;;
1078;SDS011;528;47.872;11.478;2022-08-25T07:15:52;8.80;;;8.20;;
1078;SDS011;528;47.872;11.478;2022-08-25T07:18:22;9.60;;;8.90;;
1078;SDS011;528;47.872;11.478;2022-08-25T07:20:49;8.83;;;8.23;;
1078;SDS011;528;47.872;11.478;2022-08-25T07:23:17;9.07;;;8.47;;
1078;SDS011;528;47.872;11.478;2022-08-25T07:25:46;9.07;;;8.47;;
1078;SDS011;528;47.872;11.478;2022-08-25T07:28:21;9.63;;;9.00;;
1078;SDS011;528;47.872;11.478;2022-08-25T07:30:49;8.93;;;8.23;;
1078;SDS011;528;47.872;11.478;2022-08-25T07:39:14;8.00;;;7.50;;
1078;SDS011;528;47.872;11.478;2022-08-25T07:41:42;8.93;;;8.23;;
1078;SDS011;528;47.872;11.478;2022-08-25T07:44:27;8.40;;;7.80;;
1078;SDS011;528;47.872;11.478;2022-08-25T07:46:59;8.70;;;8.10;;
1078;SDS011;528;47.872;11.478;2022-08-25T07:49:27;9.23;;;8.63;;
1078;SDS011;528;47.872;11.478;2022-08-25T07:51:56;8.93;;;8.23;;
1078;SDS011;528;47.872;11.478;2022-08-25T07:54:27;8.67;;;8.00;;
1078;SDS011;528;47.872;11.478;2022-08-25T07:56:55;7.63;;;7.03;;
1078;SDS011;528;47.872;11.478;2022-08-25T07:59:23;9.20;;;8.50;;
1078;SDS011;528;47.872;11.478;2022-08-25T08:01:55;8.50;;;7.80;;
1078;SDS011;528;47.872;11.478;2022-08-25T08:04:23;8.43;;;7.80;;
1078;SDS011;528;47.872;11.478;2022-08-25T08:07:00;8.13;;;7.63;;
1078;SDS011;528;47.872;11.478;2022-08-25T08:09:41;9.07;;;8.40;;
1078;SDS011;528;47.872;11.478;2022-08-25T08:12:09;8.30;;;7.70;;
1078;SDS011;528;47.872;11.478;2022-08-25T08:14:44;8.20;;;7.60;;
1078;SDS011;528;47.872;11.478;2022-08-25T08:17:12;8.20;;;7.70;;
1078;SDS011;528;47.872;11.478;2022-08-25T08:19:41;8.43;;;7.70;;
1078;SDS011;528;47.872;11.478;2022-08-25T08:22:12;8.07;;;7.47;;
1078;SDS011;528;47.872;11.478;2022-08-25T08:24:44;8.00;;;7.40;;
1078;SDS011;528;47.872;11.478;2022-08-25T08:27:14;8.70;;;8.20;;
1078;SDS011;528;47.872;11.478;2022-08-25T08:29:41;7.90;;;7.40;;
1078;SDS011;528;47.872;11.478;2022-08-25T08:32:10;7.83;;;7.30;;
1078;SDS011;528;47.872;11.478;2022-08-25T08:34:38;7.83;;;7.23;;
1078;SDS011;528;47.872;11.478;2022-08-25T08:37:13;8.53;;;7.93;;
1078;SDS011;528;47.872;11.478;2022-08-25T08:39:41;10.70;;;8.00;;
1078;SDS011;528;47.872;11.478;2022-08-25T08:42:13;8.33;;;7.73;;
1078;SDS011;528;47.872;11.478;2022-08-25T08:45:03;9.10;;;8.30;;
1078;SDS011;528;47.872;11.478;2022-08-25T08:47:41;7.80;;;7.30;;
1078;SDS011;528;47.872;11.478;2022-08-25T08:50:23;8.20;;;7.70;;
1078;SDS011;528;47.872;11.478;2022-08-25T08:52:58;9.30;;;8.60;;
1078;SDS011;528;47.872;11.478;2022-08-25T08:55:35;8.57;;;7.90;;
1078;SDS011;528;47.872;11.478;2022-08-25T08:58:06;8.07;;;7.53;;
1078;SDS011;528;47.872;11.478;2022-08-25T09:00:38;8.23;;;7.63;;
1078;SDS011;528;47.872;11.478;2022-08-25T09:03:09;8.40;;;7.80;;
1078;SDS011;528;47.872;11.478;2022-08-25T09:05:46;8.47;;;7.97;;
1078;SDS011;528;47.872;11.478;2022-08-25T09:08:16;7.77;;;7.23;;
1078;SDS011;528;47.872;11.478;2022-08-25T09:10:50;7.70;;;7.20;;
1078;SDS011;528;47.872;11.478;2022-08-25T09:13:30;8.73;;;8.17;;
1078;SDS011;528;47.872;11.478;2022-08-25T09:16:09;8.73;;;8.03;;
1078;SDS011;528;47.872;11.478;2022-08-25T09:19:06;8.10;;;7.40;;
1078;SDS011;528;47.872;11.478;2022-08-25T09:21:50;7.37;;;6.87;;
1078;SDS011;528;47.872;11.478;2022-08-25T09:24:27;7.60;;;7.10;;
1078;SDS011;528;47.872;11.478;2022-08-25T09:27:09;6.93;;;6.43;;
1078;SDS011;528;47.872;11.478;2022-08-25T09:29:52;7.23;;;6.73;;
1078;SDS011;528;47.872;11.478;2022-08-25T09:32:31;6.70;;;6.30;;
1078;SDS011;528;47.872;11.478;2022-08-25T09:35:03;7.10;;;6.60;;
1078;SDS011;528;47.872;11.478;2022-08-25T09:37:34;7.20;;;6.80;;
1078;SDS011;528;47.872;11.478;2022-08-25T09:40:08;7.00;;;6.60;;
1078;SDS011;528;47.872;11.478;2022-08-25T09:42:58;7.57;;;7.07;;
1078;SDS011;528;47.872;11.478;2022-08-25T09:54:53;7.10;;;6.60;;
1078;SDS011;528;47.872;11.478;2022-08-25T09:57:30;6.60;;;6.10;;
1078;SDS011;528;47.872;11.478;2022-08-25T10:03:30;6.57;;;6.17;;
1078;SDS011;528;47.872;11.478;2022-08-25T10:06:20;7.17;;;6.67;;
1078;SDS011;528;47.872;11.478;2022-08-25T10:09:26;6.40;;;6.00;;
1078;SDS011;528;47.872;11.478;2022-08-25T10:23:12;6.47;;;5.97;;
1078;SDS011;528;47.872;11.478;2022-08-25T10:25:51;6.10;;;5.70;;
1078;SDS011;528;47.872;11.478;2022-08-25T10:28:41;5.93;;;5.53;;
1078;SDS011;528;47.872;11.478;2022-08-25T10:34:52;6.60;;;6.20;;
1078;SDS011;528;47.872;11.478;2022-08-25T10:37:44;6.13;;;5.73;;
1078;SDS011;528;47.872;11.478;2022-08-25T10:40:24;6.13;;;5.73;;
1078;SDS011;528;47.872;11.478;2022-08-25T10:43:14;6.10;;;5.70;;
1078;SDS011;528;47.872;11.478;2022-08-25T10:45:56;5.77;;;5.47;;
1078;SDS011;528;47.872;11.478;2022-08-25T10:49:02;6.50;;;6.10;;
1078;SDS011;528;47.872;11.478;2022-08-25T10:51:46;6.00;;;5.60;;
1078;SDS011;528;47.872;11.478;2022-08-25T10:54:54;6.37;;;5.97;;
1078;SDS011;528;47.872;11.478;2022-08-25T10:58:12;6.73;;;6.23;;
1078;SDS011;528;47.872;11.478;2022-08-25T11:00:53;6.40;;;5.90;;
1078;SDS011;528;47.872;11.478;2022-08-25T11:03:31;6.43;;;5.97;;
1078;SDS011;528;47.872;11.478;2022-08-25T11:06:39;6.90;;;6.40;;
1078;SDS011;528;47.872;11.478;2022-08-25T11:09:17;6.73;;;6.33;;
1078;SDS011;528;47.872;11.478;2022-08-25T11:11:49;7.10;;;6.70;;
1078;SDS011;528;47.872;11.478;2022-08-25T11:14:30;6.80;;;6.30;;
1078;SDS011;528;47.872;11.478;2022-08-25T12:19:48;6.43;;;6.03;;
1078;SDS011;528;47.872;11.478;2022-08-25T12:25:11;6.30;;;5.90;;
1078;SDS011;528;47.872;11.478;2022-08-25T12:27:48;6.47;;;5.97;;
1078;SDS011;528;47.872;11.478;2022-08-25T12:30:25;6.63;;;6.13;;
1078;SDS011;528;47.872;11.478;2022-08-25T12:33:01;6.00;;;5.60;;
1078;SDS011;528;47.872;11.478;2022-08-25T12:35:38;6.67;;;6.17;;
1078;SDS011;528;47.872;11.478;2022-08-25T12:38:16;6.57;;;6.17;;
1078;SDS011;528;47.872;11.478;2022-08-25T12:40:57;5.73;;;5.40;;
1078;SDS011;528;47.872;11.478;2022-08-25T12:43:29;6.90;;;6.40;;
1078;SDS011;528;47.872;11.478;2022-08-25T12:49:00;6.40;;;6.00;;
1078;SDS011;528;47.872;11.478;2022-08-25T12:51:43;5.53;;;5.13;;
1078;SDS011;528;47.872;11.478;2022-08-25T12:54:18;5.87;;;5.53;;
1078;SDS011;528;47.872;11.478;2022-08-25T12:56:52;5.57;;;5.23;;
1078;SDS011;528;47.872;11.478;2022-08-25T12:59:31;6.00;;;5.60;;
1078;SDS011;528;47.872;11.478;2022-08-25T13:02:05;5.50;;;5.20;;
1078;SDS011;528;47.872;11.478;2022-08-25T13:08:05;5.80;;;5.50;;
1078;SDS011;528;47.872;11.478;2022-08-25T13:10:56;5.17;;;4.83;;
1078;SDS011;528;47.872;11.478;2022-08-25T13:13:33;5.60;;;5.30;;
1078;SDS011;528;47.872;11.478;2022-08-25T13:16:15;5.30;;;5.00;;
1078;SDS011;528;47.872;11.478;2022-08-25T13:18:43;5.27;;;4.97;;
1078;SDS011;528;47.872;11.478;2022-08-25T13:21:12;5.60;;;5.10;;
1078;SDS011;528;47.872;11.478;2022-08-25T13:23:43;5.73;;;5.33;;
1078;SDS011;528;47.872;11.478;2022-08-25T13:26:12;5.60;;;5.10;;
1078;SDS011;528;47.872;11.478;2022-08-25T13:28:41;5.67;;;5.27;;
1078;SDS011;528;47.872;11.478;2022-08-25T13:31:13;5.10;;;4.80;;
1078;SDS011;528;47.872;11.478;2022-08-25T13:33:48;5.00;;;4.70;;
1078;SDS011;528;47.872;11.478;2022-08-25T13:36:17;4.87;;;4.67;;
1078;SDS011;528;47.872;11.478;2022-08-25T13:39:10;5.20;;;4.90;;
1078;SDS011;528;47.872;11.478;2022-08-25T13:41:43;5.30;;;5.00;;
1078;SDS011;528;47.872;11.478;2022-08-25T13:44:12;6.00;;;5.60;;
1078;SDS011;528;47.872;11.478;2022-08-25T13:46:39;5.90;;;5.43;;
1078;SDS011;528;47.872;11.478;2022-08-25T13:49:12;5.63;;;5.33;;
1078;SDS011;528;47.872;11.478;2022-08-25T13:51:53;5.97;;;5.57;;
1078;SDS011;528;47.872;11.478;2022-08-25T13:54:24;5.93;;;5.50;;
1078;SDS011;528;47.872;11.478;2022-08-25T13:57:02;5.63;;;5.23;;
1078;SDS011;528;47.872;11.478;2022-08-25T13:59:32;5.60;;;5.30;;
1078;SDS011;528;47.872;11.478;2022-08-25T14:02:03;5.00;;;4.70;;
1078;SDS011;528;47.872;11.478;2022-08-25T14:04:32;5.50;;;5.10;;
1078;SDS011;528;47.872;11.478;2022-08-25T14:07:14;5.60;;;5.20;;
1078;SDS011;528;47.872;11.478;2022-08-25T14:09:54;5.50;;;5.10;;
1078;SDS011;528;47.872;11.478;2022-08-25T14:12:27;5.30;;;5.00;;
1078;SDS011;528;47.872;11.478;2022-08-25T14:14:57;5.20;;;4.90;;
1078;SDS011;528;47.872;11.478;2022-08-25T14:17:26;5.53;;;5.23;;
1078;SDS011;528;47.872;11.478;2022-08-25T14:19:53;5.17;;;4.87;;
1078;SDS011;528;47.872;11.478;2022-08-25T14:22:20;5.13;;;4.73;;
1078;SDS011;528;47.872;11.478;2022-08-25T14:24:47;5.40;;;5.00;;
1078;SDS011;528;47.872;11.478;2022-08-25T14:27:18;5.37;;;4.97;;
1078;SDS011;528;47.872;11.478;2022-08-25T14:29:45;4.90;;;4.50;;
1078;SDS011;528;47.872;11.478;2022-08-25T14:32:12;4.93;;;4.63;;
1078;SDS011;528;47.872;11.478;2022-08-25T14:34:43;5.30;;;4.90;;
1078;SDS011;528;47.872;11.478;2022-08-25T14:37:12;4.80;;;4.50;;
1078;SDS011;528;47.872;11.478;2022-08-25T14:39:40;5.17;;;4.87;;
1078;SDS011;528;47.872;11.478;2022-08-25T14:42:08;4.70;;;4.40;;
1078;SDS011;528;47.872;11.478;2022-08-25T14:44:37;4.90;;;4.60;;
1078;SDS011;528;47.872;11.478;2022-08-25T14:47:04;4.90;;;4.60;;
1078;SDS011;528;47.872;11.478;2022-08-25T14:49:34;4.67;;;4.37;;
1078;SDS011;528;47.872;11.478;2022-08-25T14:52:05;4.67;;;4.37;;
1078;SDS011;528;47.872;11.478;2022-08-25T14:54:35;5.00;;;4.70;;
1078;SDS011;528;47.872;11.478;2022-08-25T14:57:02;5.13;;;4.83;;
1078;SDS011;528;47.872;11.478;2022-08-25T14:59:29;5.03;;;4.73;;
1078;SDS011;528;47.872;11.478;2022-08-25T15:01:58;4.33;;;4.13;;
1078;SDS011;528;47.872;11.478;2022-08-25T15:04:26;4.33;;;4.03;;
1078;SDS011;528;47.872;11.478;2022-08-25T15:06:56;4.67;;;4.37;;
1078;SDS011;528;47.872;11.478;2022-08-25T15:09:46;4.93;;;4.63;;
1078;SDS011;528;47.872;11.478;2022-08-25T15:12:12;5.10;;;4.80;;
1078;SDS011;528;47.872;11.478;2022-08-25T15:14:40;4.87;;;4.57;;
1078;SDS011;528;47.872;11.478;2022-08-25T15:17:08;5.60;;;5.30;;
1078;SDS011;528;47.872;11.478;2022-08-25T15:19:37;5.57;;;5.23;;
1078;SDS011;528;47.872;11.478;2022-08-25T15:22:04;5.57;;;5.17;;
1078;SDS011;528;47.872;11.478;2022-08-25T15:24:31;6.57;;;5.13;;
1078;SDS011;528;47.872;11.478;2022-08-25T15:26:59;5.00;;;4.60;;
1078;SDS011;528;47.872;11.478;2022-08-25T15:29:30;5.30;;;4.90;;
1078;SDS011;528;47.872;11.478;2022-08-25T15:31:59;5.60;;;4.80;;
1078;SDS011;528;47.872;11.478;2022-08-25T15:34:29;5.20;;;4.83;;
1078;SDS011;528;47.872;11.478;2022-08-25T15:36:56;5.07;;;4.60;;
1078;SDS011;528;47.872;11.478;2022-08-25T15:39:25;4.70;;;4.40;;
1078;SDS011;528;47.872;11.478;2022-08-25T15:41:52;5.57;;;5.17;;
1078;SDS011;528;47.872;11.478;2022-08-25T15:44:20;5.20;;;4.67;;
1078;SDS011;528;47.872;11.478;2022-08-25T15:46:47;4.77;;;4.47;;
1078;SDS011;528;47.872;11.478;2022-08-25T15:49:14;4.87;;;4.47;;
1078;SDS011;528;47.872;11.478;2022-08-25T15:51:43;4.93;;;4.63;;
1078;SDS011;528;47.872;11.478;2022-08-25T15:54:10;5.20;;;4.73;;
1078;SDS011;528;47.872;11.478;2022-08-25T15:56:38;5.17;;;4.67;;
1078;SDS011;528;47.872;11.478;2022-08-25T15:59:07;5.03;;;4.60;;
1078;SDS011;528;47.872;11.478;2022-08-25T16:01:34;5.00;;;4.63;;
1078;SDS011;528;47.872;11.478;2022-08-25T16:04:01;4.93;;;4.63;;
1078;SDS011;528;47.872;11.478;2022-08-25T16:06:28;5.23;;;4.83;;
1078;SDS011;528;47.872;11.478;2022-08-25T16:08:57;5.53;;;5.03;;
1078;SDS011;528;47.872;11.478;2022-08-25T16:11:28;4.83;;;4.47;;
1078;SDS011;528;47.872;11.478;2022-08-25T16:13:58;5.70;;;5.20;;
1078;SDS011;528;47.872;11.478;2022-08-25T16:16:27;5.27;;;4.90;;
1078;SDS011;528;47.872;11.478;2022-08-25T16:18:55;5.00;;;4.70;;
1078;SDS011;528;47.872;11.478;2022-08-25T16:21:24;5.40;;;4.90;;
1078;SDS011;528;47.872;11.478;2022-08-25T16:23:52;5.17;;;4.80;;
1078;SDS011;528;47.872;11.478;2022-08-25T16:26:22;5.93;;;4.50;;
1078;SDS011;528;47.872;11.478;2022-08-25T16:28:49;4.80;;;4.40;;
1078;SDS011;528;47.872;11.478;2022-08-25T16:31:17;4.70;;;4.40;;
1078;SDS011;528;47.872;11.478;2022-08-25T16:33:44;5.47;;;4.97;;
1078;SDS011;528;47.872;11.478;2022-08-25T16:36:13;5.30;;;4.83;;
1078;SDS011;528;47.872;11.478;2022-08-25T16:38:42;4.80;;;4.40;;
1078;SDS011;528;47.872;11.478;2022-08-25T16:41:11;5.23;;;4.83;;
1078;SDS011;528;47.872;11.478;2022-08-25T16:43:41;5.17;;;4.87;;
1078;SDS011;528;47.872;11.478;2022-08-25T16:46:10;5.37;;;4.97;;
1078;SDS011;528;47.872;11.478;2022-08-25T16:48:39;5.20;;;4.60;;
1078;SDS011;528;47.872;11.478;2022-08-25T16:51:07;5.07;;;4.77;;
1078;SDS011;528;47.872;11.478;2022-08-25T16:53:35;5.07;;;4.77;;
1078;SDS011;528;47.872;11.478;2022-08-25T16:56:20;5.20;;;4.83;;
1078;SDS011;528;47.872;11.478;2022-08-25T16:58:50;6.97;;;6.27;;
1078;SDS011;528;47.872;11.478;2022-08-25T17:01:19;7.10;;;6.40;;
1078;SDS011;528;47.872;11.478;2022-08-25T17:03:48;7.83;;;6.70;;
1078;SDS011;528;47.872;11.478;2022-08-25T17:06:17;8.00;;;7.30;;
1078;SDS011;528;47.872;11.478;2022-08-25T17:08:44;8.20;;;7.40;;
1078;SDS011;528;47.872;11.478;2022-08-25T17:11:17;9.40;;;8.30;;
1078;SDS011;528;47.872;11.478;2022-08-25T17:13:46;9.07;;;8.27;;
1078;SDS011;528;47.872;11.478;2022-08-25T17:16:19;9.53;;;8.67;;
1078;SDS011;528;47.872;11.478;2022-08-25T17:18:50;10.93;;;8.90;;
1078;SDS011;528;47.872;11.478;2022-08-25T17:21:17;10.70;;;9.60;;
1078;SDS011;528;47.872;11.478;2022-08-25T17:23:45;11.40;;;9.73;;
1078;SDS011;528;47.872;11.478;2022-08-25T17:26:13;12.30;;;9.57;;
1078;SDS011;528;47.872;11.478;2022-08-25T17:28:42;11.03;;;9.80;;
1078;SDS011;528;47.872;11.478;2022-08-25T17:31:09;12.27;;;10.97;;
1078;SDS011;528;47.872;11.478;2022-08-25T17:33:39;12.00;;;9.60;;
1078;SDS011;528;47.872;11.478;2022-08-25T17:36:07;11.70;;;9.97;;
1078;SDS011;528;47.872;11.478;2022-08-25T17:38:35;12.10;;;10.80;;
1078;SDS011;528;47.872;11.478;2022-08-25T17:41:03;18.93;;;11.43;;
1078;SDS011;528;47.872;11.478;2022-08-25T17:43:32;12.03;;;10.10;;
1078;SDS011;528;47.872;11.478;2022-08-25T17:46:01;13.47;;;10.80;;
1078;SDS011;528;47.872;11.478;2022-08-25T17:48:32;12.17;;;10.50;;
1078;SDS011;528;47.872;11.478;2022-08-25T17:51:05;11.70;;;10.50;;
1078;SDS011;528;47.872;11.478;2022-08-25T17:53:32;11.70;;;10.03;;
1078;SDS011;528;47.872;11.478;2022-08-25T17:56:08;11.07;;;9.90;;
1078;SDS011;528;47.872;11.478;2022-08-25T17:58:52;15.33;;;10.93;;
1078;SDS011;528;47.872;11.478;2022-08-25T18:01:27;11.90;;;9.80;;
1078;SDS011;528;47.872;11.478;2022-08-25T18:04:03;16.03;;;12.03;;
1078;SDS011;528;47.872;11.478;2022-08-25T18:06:56;11.77;;;10.47;;
1078;SDS011;528;47.872;11.478;2022-08-25T18:12:08;15.40;;;11.57;;
1078;SDS011;528;47.872;11.478;2022-08-25T18:17:56;12.10;;;11.00;;
1078;SDS011;528;47.872;11.478;2022-08-25T18:20:36;14.37;;;11.00;;
1078;SDS011;528;47.872;11.478;2022-08-25T18:23:08;13.00;;;11.70;;
1078;SDS011;528;47.872;11.478;2022-08-25T18:25:35;13.33;;;11.70;;
1078;SDS011;528;47.872;11.478;2022-08-25T18:28:04;15.50;;;12.07;;
1078;SDS011;528;47.872;11.478;2022-08-25T18:30:37;13.17;;;11.20;;
1078;SDS011;528;47.872;11.478;2022-08-25T18:33:08;13.03;;;11.20;;
1078;SDS011;528;47.872;11.478;2022-08-25T18:39:27;13.50;;;12.13;;
1078;SDS011;528;47.872;11.478;2022-08-25T18:42:13;13.57;;;12.17;;
1078;SDS011;528;47.872;11.478;2022-08-25T18:44:49;15.93;;;12.97;;
1078;SDS011;528;47.872;11.478;2022-08-25T18:47:31;13.70;;;12.30;;
1078;SDS011;528;47.872;11.478;2022-08-25T18:50:08;15.77;;;11.80;;
1078;SDS011;528;47.872;11.478;2022-08-25T19:00:14;14.80;;;13.40;;
1078;SDS011;528;47.872;11.478;2022-08-25T19:02:46;16.90;;;12.20;;
1078;SDS011;528;47.872;11.478;2022-08-25T19:08:42;15.00;;;12.83;;
1078;SDS011;528;47.872;11.478;2022-08-25T21:37:44;15.87;;;14.17;;
1078;SDS011;528;47.872;11.478;2022-08-25T21:40:35;16.23;;;14.47;;
1078;SDS011;528;47.872;11.478;2022-08-25T21:43:12;19.63;;;14.50;;
1078;SDS011;528;47.872;11.478;2022-08-25T21:45:40;19.10;;;15.43;;
1078;SDS011;528;47.872;11.478;2022-08-25T21:48:08;15.50;;;13.77;;
1078;SDS011;528;47.872;11.478;2022-08-25T21:50:35;16.33;;;14.70;;
1078;SDS011;528;47.872;11.478;2022-08-25T21:53:05;16.03;;;14.43;;
1078;SDS011;528;47.872;11.478;2022-08-25T21:55:36;18.43;;;14.97;;
1078;SDS011;528;47.872;11.478;2022-08-25T21:58:04;17.10;;;15.07;;
1078;SDS011;528;47.872;11.478;2022-08-25T22:00:31;18.20;;;14.60;;
1078;SDS011;528;47.872;11.478;2022-08-25T22:02:59;19.90;;;15.30;;
1078;SDS011;528;47.872;11.478;2022-08-25T22:05:27;19.47;;;14.90;;
1078;SDS011;528;47.872;11.478;2022-08-25T22:07:54;18.17;;;15.47;;